Terminal Aerodrome Forecast
Issued by NWS

Home | Current Version | Previous Version | Text Only | Print | Product List | Glossary On
Versions: 1 2 3 4 5 6 7 8 9 10 11 12 13 14
000
FTUS43 KJKL 170539
TAFSME
TAF
KSME 170539Z 1706/1806 VRB04KT P6SM SCT060
     FM170730 VRB03KT 6SM -SHSN BKN025
     FM171200 VRB03KT 6SM -SHSN BKN015
     FM171800 30006KT 6SM -SHSN BKN025
     FM172300 VRB05KT P6SM SCT015=

USA.gov is the U.S. government's official web portal to all federal, state and local government web resources and services.